Tiempo atmosférico en la estación meteorológica de Quintanar De La Orden, Toledo (691 m.)



Fecha
DESCASC
Temp. máxima en grados centígrados (hora)
DESCASC
Temp. mínima en grados centígrados (hora)
DESCASC
Temp. media en grados centígrados
DESCASC
Racha de viento máxima en m/sg (hora)
DESCASC
Velocidad máxima media en intervalos de 10 minutos(hora)
DESCASC
Precipitaciones diarias en mm
DESCASC
Precipitaciones de 00:00 a 06:00 en mm
DESCASC
Precipitaciones de 06:00 a 12:00 en mm
DESCASC
Precipitaciones de 12:00 a 18:00 en mm
DESCASC
Precipitaciones de 18:00 a 24:00 en mm
DESCASC
26-11-2020 -- (--) -- (--) -- 13.06 (12:20) 5.28 (12:20) 0.3 0 0.2 0 0.1
25-11-2020 -- (--) -- (--) -- 8.89 (23:59) 3.61 (19:30) 0 0 0 0 0
24-11-2020 -- (--) -- (--) -- 3.89 (13:40) 1.94 (16:30) 0 0 0 0 0
23-11-2020 -- (--) -- (--) -- 3.61 (14:10) 1.67 (12:00) 0 0 0 0 0
22-11-2020 -- (--) -- (--) -- 7.5 (01:50) 2.78 (01:50) 0 0 0 0 0
21-11-2020 -- (--) -- (--) -- 11.67 (10:50) 2.78 (22:00) 0 0 0 0 0
20-11-2020 -- (--) -- (--) -- 9.72 (11:30) 5 (11:30) 0 0 0 0 0
19-11-2020 -- (--) -- (--) -- 5 (14:20) 2.78 (22:50) 0.1 0 0.1 0 0
18-11-2020 -- (--) -- (--) -- 3.33 (15:10) 1.94 (22:40) 0 0 0 0 0
17-11-2020 -- (--) -- (--) -- 3.33 (15:40) 1.94 (15:40) 0 0 0 0 0
16-11-2020 -- (--) -- (--) -- 4.44 (14:00) 2.22 (16:00) 0 0 0 0 0
15-11-2020 -- (--) -- (--) -- 7.78 (14:40) 3.89 (10:40) 0.1 0 0.1 0 0
14-11-2020 -- (--) -- (--) -- 4.17 (04:10) 2.5 (23:40) 2.4 0 1 0.9 0.5
13-11-2020 -- (--) -- (--) -- 7.5 (01:00) 3.06 (00:30) 0 0 0 0 0
12-11-2020 -- (--) -- (--) -- 6.39 (23:59) 2.78 (23:50) 0.1 0 0 0.1 0
11-11-2020 -- (--) -- (--) -- 6.67 (11:20) 3.06 (11:10) 0 0 0 0 0
10-11-2020 -- (--) -- (--) -- 3.89 (14:00) 1.94 (16:10) 0 0 0 0 0
09-11-2020 -- (--) -- (--) -- 4.44 (13:30) 2.22 (11:20) 6.5 0 6.4 0.1 0
08-11-2020 -- (--) -- (--) -- 7.22 (15:40) 3.33 (15:20) 0 0 0 0 0
07-11-2020 -- (--) -- (--) -- 10.83 (01:50) 6.11 (13:10) 9.8 9.8 0 0 0
06-11-2020 -- (--) -- (--) -- 18.89 (11:10) 7.5 (12:10) 0 0 0 0 0
05-11-2020 -- (--) -- (--) -- 14.72 (12:50) 5.83 (13:00) 9.9 0 1.6 8.3 0
04-11-2020 -- (--) -- (--) -- 13.06 (22:50) 5.28 (22:50) 7.5 0 0 5 2.5
03-11-2020 -- (--) -- (--) -- 8.89 (17:00) 4.72 (16:50) 3.2 0 0 1.3 1.9
02-11-2020 -- (--) -- (--) -- 3.61 (14:10) 1.39 (19:40) 0 0 0 0 0
01-11-2020 -- (--) -- (--) -- 3.89 (02:30) 1.39 (01:50) 0 0 0 0 0
31-10-2020 -- (--) -- (--) -- 3.61 (16:50) 1.67 (16:50) 0 0 0 0 0
30-10-2020 -- (--) -- (--) -- 3.06 (15:10) 1.39 (16:20) 0 0 0 0 0

Gráficas

Temp. máximas Temp. mínimas Temp. medias Precipitaciones Rachas de viento máximas Velocidades máximas media en intervalos de 10 minutos

Datos horarios

Fecha y hora oficial Temperatura (ºC) Velocidad del viento (km/h) Dirección del viento Racha (km/h) Dirección de racha Precipitación (mm) Presión (hPa) Tendencia (hPa) Humedad (%)
2020-11-28 23:00:00 8.2 4 Sur 10 Sur 0 932.9 0.1 89
2020-11-28 22:00:00 8.3 5 Sur 9 Sur 0 932.8 -0.1 87
2020-11-28 21:00:00 -- 3 Sur 8 Sudoeste 0 932.9 0.1 --
2020-11-28 20:00:00 8.7 5 Sur 9 Sur 0 932.8 0 83
2020-11-28 19:00:00 8.9 4 Sur 8 Sur 0 932.9 0.2 83
2020-11-28 18:00:00 9 3 Sudoeste 12 Sudoeste 0 932.8 0 81
2020-11-28 17:00:00 9.7 8 Sudoeste 17 Oeste 0 932.8 0.1 76
2020-11-28 16:00:00 9.7 10 Sudoeste 19 Oeste 0.1 932.7 -0.1 73
2020-11-28 15:00:00 10 6 Sudoeste 15 Sudoeste 0 932.8 0.1 72
2020-11-28 14:00:00 10.3 5 Oeste 16 Sudoeste 0 932.7 -0.1 69
2020-11-28 13:00:00 10.1 2 Oeste 14 Oeste 0 932.8 -0.1 79
2020-11-28 12:00:00 8.5 0 Calma 12 Oeste 0 932.7 -0.2 88
2020-11-28 11:00:00 7.3 0 Calma 9 Sudoeste 0 932.8 -0.2 92
2020-11-28 10:00:00 6.7 4 Sur 8 Sudeste 0 932.9 -0.1 92
2020-11-28 09:00:00 5.6 3 Noroeste 7 Noroeste 0 932.9 0 94
2020-11-28 08:00:00 -- 0 Calma 6 Sudoeste 0 933 0.1 --
2020-11-28 07:00:00 -- 0 Calma 8 Este 0 933 0.1 --
2020-11-28 06:00:00 6.4 2 Nordeste 8 Nordeste 0 932.9 0.2 92
2020-11-28 05:00:00 6.8 2 Nordeste 4 Nordeste 0 932.9 0 91
2020-11-28 04:00:00 6.9 0 Calma 5 Nordeste 0 932.9 0 91
2020-11-28 03:00:00 -- 3 Nordeste 6 Nordeste 0 932.7 -- --
2020-11-28 02:00:00 -- 0 Calma 8 Norte 0 932.9 -- --
2020-11-28 01:00:00 6.8 3 Norte 8 Norte 0 932.9 -- 89
2020-11-28 00:00:00 -- 2 Sudoeste 8 Sur 0 932.9 -- --
2020-11-27 23:00:00 7.4 3 Este 17 Nordeste 0 932.9 -- 85
2020-11-27 22:00:00 7.5 4 Este 12 Este 0.1 932.9 -- 83
2020-11-27 21:00:00 7.5 6 Este 20 Nordeste 0 932.8 -- 86
2020-11-27 20:00:00 7.3 9 Este 22 Nordeste 0.6 932.9 -- 88
2020-11-27 19:00:00 7.6 13 Nordeste 32 Nordeste 1.1 932.9 -- 86
2020-11-27 18:00:00 8.3 10 Este 21 Nordeste 0.3 932.9 -- 83
2020-11-27 17:00:00 8.9 5 Sudeste 29 Sudeste 0 932.8 -- 82
2020-11-27 16:00:00 9.5 6 Sudeste 31 Sudeste 0 932.7 -- 77
2020-11-27 15:00:00 9.4 14 Este 43 Este 0 932.8 -- 76
2020-11-27 14:00:00 9.5 14 Nordeste 35 Este 0.3 932.8 -- 81
2020-11-27 13:00:00 9 11 Este 34 Este 1.1 932.8 -- 87
2020-11-27 12:00:00 9.6 9 Este 29 Nordeste 0.6 932.8 -- 86
2020-11-27 11:00:00 9.1 12 Nordeste 26 Sudeste 3.7 932.8 -- 88
2020-11-27 10:00:00 9.9 7 Sudeste 25 Sudeste 4.1 932.8 -- 91
2020-11-27 09:00:00 10.7 6 Sudeste 14 Sur 0.3 932.8 -- 80
2020-11-27 08:00:00 10.1 6 Este 17 Sudeste 0 932.8 -- 76
2020-11-27 07:00:00 10.5 8 Este 21 Nordeste 0 932.8 -- 75
2020-11-27 06:00:00 10.9 8 Este 21 Nordeste 0 932.8 -- 76
2020-11-27 05:00:00 11.2 7 Este 23 Este 0 932.8 -- 77
2020-11-27 04:00:00 11.4 6 Este 22 Sudeste 0 932.8 -- 78
2020-11-27 03:00:00 11 3 Este 18 Sudeste 0 932.8 -- 79
2020-11-27 02:00:00 -- 5 Sudeste 22 Sudeste 0 932.8 -- --
2020-11-27 01:00:00 11.2 6 Sudeste 25 Sudeste 0 932.8 -- 79
2020-11-27 00:00:00 -- 10 Sudeste 31 Sudeste 0 932.8 -- --
2020-11-26 23:00:00 11.7 12 Sudeste 35 Sudeste 0 932.8 -- 79
2020-11-26 22:00:00 -- 12 Sudeste 36 Sudeste 0 932.8 -- --
2020-11-26 21:00:00 12.1 12 Sudeste 29 Sudeste 0.1 932.8 -- 83
2020-11-26 20:00:00 12.1 13 Sudeste 30 Sudeste 0 932.8 -- 82
2020-11-26 19:00:00 12.5 12 Sudeste 39 Sudeste 0 932.8 -- 77
2020-11-26 18:00:00 12.6 12 Sudeste 37 Sudeste 0 932.8 -- 74
2020-11-26 17:00:00 13.2 12 Sudeste 37 Sudeste 0 932.8 -- 72
2020-11-26 16:00:00 13.6 15 Sudeste 37 Sudeste 0 932.7 -- 71
2020-11-26 15:00:00 13 15 Sudeste 41 Sudeste 0 932.8 -- 72
2020-11-26 14:00:00 12.6 12 Sudeste 37 Sudeste 0 932.8 -- 76
2020-11-26 13:00:00 12.4 17 Sudeste 47 Sudeste 0 932.8 -- 75
2020-11-26 12:00:00 12 13 Sudeste 39 Sudeste 0 932.7 -- 76
2020-11-26 11:00:00 11.3 10 Sudeste 32 Sudeste 0 932.6 -- 83
2020-11-26 10:00:00 10.7 8 Sudeste 31 Sur 0.1 932.7 -- 87
2020-11-26 09:00:00 10.2 10 Sudeste 35 Sudeste 0.1 932.8 -- 89
2020-11-26 08:00:00 -- 13 Sudeste 38 Sudeste 0 932.8 -- --
2020-11-26 07:00:00 10 10 Sudeste 36 Sudeste 0 932.9 -- 87
2020-11-26 06:00:00 -- 12 Sudeste 33 Sudeste 0 932.9 -- --
2020-11-26 05:00:00 -- 12 Sudeste 36 Sudeste 0 932.9 -- --
2020-11-26 04:00:00 9.5 12 Sudeste 41 Sudeste 0 932.9 -- 79
2020-11-26 03:00:00 -- 12 Sudeste 41 Sudeste 0 932.9 -- --
2020-11-26 02:00:00 -- 15 Sudeste 37 Sudeste 0 932.6 -- --
2020-11-26 01:00:00 9.5 14 Sudeste 34 Sudeste 0 932.9 -- 83
2020-11-26 00:00:00 9.5 12 Sudeste 32 Sudeste 0 932.9 -- 82
2020-11-25 23:00:00 9.7 11 Sudeste 26 Sudeste 0 932.9 -- 75
2020-11-25 22:00:00 10.5 7 Sudeste 22 Sudeste 0 932.8 -- 69
2020-11-25 21:00:00 11.6 9 Sudeste 23 Sudeste 0 932.8 -- 63
2020-11-25 20:00:00 12.2 11 Sur 30 Sudoeste 0 932.8 -- 59
2020-11-25 19:00:00 13.1 8 Sur 18 Sur 0 932.8 -- 52
2020-11-25 18:00:00 12.9 5 Sudeste 13 Sudeste 0 932.8 -- 52
2020-11-25 17:00:00 13.7 6 Sur 21 Sudoeste 0 932.7 -- 49
2020-11-25 16:00:00 14.7 9 Sudoeste 29 Sudoeste 0 932.7 -- 47
2020-11-25 15:00:00 14.3 13 Sudoeste 28 Sur 0 932.7 -- 50
2020-11-25 14:00:00 14 10 Sudoeste 18 Sur 0 932.8 -- 60
2020-11-25 13:00:00 12.2 6 Sur -- -- -- 932.8 -- 72
2020-11-25 12:00:00 11 8 Sur 19 Sur 0 932.8 -- 75
2020-11-25 11:00:00 -- 6 Sur 14 Sur 0 932.7 -- --
2020-11-25 10:00:00 8.3 6 Sudeste 14 Sudeste 0 932.9 -- 75
2020-11-25 09:00:00 7.4 6 Sudeste 15 Sudeste 0 932.9 -- 73
2020-11-25 08:00:00 6.9 6 Sudeste 15 Sudeste 0 932.9 -- 72
2020-11-25 07:00:00 7 5 Sur 13 Sur 0 932.9 -- 71
2020-11-25 06:00:00 -- 5 Sur 13 Sur 0 932.9 -- --
2020-11-25 05:00:00 7 4 Sudeste 10 Sur 0 932.9 -- 68
2020-11-25 04:00:00 6.9 3 Sur 8 Sur 0 932.9 -- 66
2020-11-25 03:00:00 6.5 2 Sudeste 13 Sudoeste 0 932.8 -- 66
2020-11-25 02:00:00 6.5 2 Sur 8 Sur 0 933 -- 67
2020-11-25 01:00:00 6.6 0 Calma 5 Sur 0 932.9 -- 66
2020-11-25 00:00:00 5.4 0 Calma 3 Sudeste 0 933 -- 67
2020-11-24 23:00:00 6.1 0 Calma 4 Sur 0 932.9 -- 63
2020-11-24 22:00:00 7.1 0 Calma 5 Noroeste 0 932.9 -- 57
2020-11-24 21:00:00 7.8 0 Calma 10 Noroeste 0 932.9 -- 53
2020-11-24 20:00:00 8.8 2 Sudoeste 7 Oeste 0 932.9 -- 47
2020-11-24 19:00:00 10.4 3 Sudoeste 9 Sudoeste 0 932.8 -- 41
2020-11-24 18:00:00 -- 4 Sudoeste 11 Sudoeste 0 932.8 -- --
2020-11-24 17:00:00 -- 4 Sudoeste 13 Sudoeste 0 932.7 -- --
2020-11-24 16:00:00 -- 4 Sudoeste 13 Sudoeste 0 932.7 -- --
2020-11-24 15:00:00 -- 4 Sudoeste 13 Sudoeste 0 932.7 -- --
2020-11-24 14:00:00 -- 4 Sudoeste 14 Sudoeste 0 932.7 -- --
2020-11-24 13:00:00 -- 6 Sudoeste 12 Sudoeste 0 932.7 -- --
2020-11-24 12:00:00 -- 4 Sur 12 Sudeste 0 932.8 -- --
2020-11-24 11:00:00 8.3 5 Sur 11 Sur 0 932.8 -- 68
2020-11-24 10:00:00 6.5 4 Sur 8 Sur 0 932.9 -- 86
2020-11-24 09:00:00 3.6 0 Calma 8 Sur 0 933.1 -- 92
2020-11-24 08:00:00 1.8 0 Calma 3 Sur 0 933.1 -- 91
2020-11-24 07:00:00 1.4 0 Calma -- -- 0 933.2 -- 90
2020-11-24 06:00:00 1.8 0 Calma -- -- 0 933 -- 86
2020-11-24 05:00:00 2 0 Calma 3 Nordeste 0 933.1 -- 86
2020-11-24 04:00:00 2.3 0 Calma 3 Nordeste 0 933.1 -- 84
2020-11-24 03:00:00 2.5 2 Nordeste 4 Nordeste 0 933.1 -- 83
2020-11-24 02:00:00 2.8 3 Nordeste 5 Nordeste 0 933 -- 79
2020-11-24 01:00:00 5.2 0 Calma 5 Oeste 0 933 -- 71
2020-11-24 00:00:00 7.4 0 Calma 9 Sudeste 0 932.9 -- 64
2020-11-23 23:00:00 -- 3 Sudeste 12 Sudeste 0 932.9 -- --
2020-11-23 22:00:00 -- 4 Sudeste 9 Sudeste 0 932.9 -- --
2020-11-23 21:00:00 -- 0 Calma 4 Este 0 932.9 -- --
2020-11-23 20:00:00 -- 2 Este 6 Sudeste 0 932.9 -- --
2020-11-23 19:00:00 -- 0 Calma 3 Sudeste 0 932.8 -- --
2020-11-23 18:00:00 -- 0 Calma 6 Sur 0 932.7 -- --
2020-11-23 17:00:00 17.6 0 Calma 9 Sur 0 932.7 -- 24
2020-11-23 16:00:00 -- 2 Sudeste 10 Sudeste 0 932.6 -- --
2020-11-23 15:00:00 18 2 Sur 13 Sur 0 932.5 -- 29
2020-11-23 14:00:00 17.6 2 Sudeste 12 Sur 0 932.6 -- 33
2020-11-23 13:00:00 14.7 3 Este 13 Sudeste 0 932.7 -- 43
2020-11-23 12:00:00 12.8 6 Sur 13 Sur 0 932.8 -- 49
2020-11-23 11:00:00 9.3 0 Calma 3 Norte 0 932.8 -- 71
2020-11-23 10:00:00 5.4 0 Calma 4 Sur 0 933 -- 84
2020-11-23 09:00:00 1.3 0 Calma 6 Nordeste 0 933.1 -- 87
2020-11-23 08:00:00 0.6 0 Calma 4 Nordeste 0 933.2 -- 87
2020-11-23 07:00:00 0.5 3 Nordeste 5 Nordeste 0 933.1 -- 86
2020-11-23 06:00:00 1 0 Calma -- -- 0 933.2 -- 86
2020-11-23 05:00:00 -- 0 Calma 6 Nordeste 0 933.1 -- --
2020-11-23 04:00:00 -- 3 Nordeste 5 Nordeste 0 933.1 -- --
2020-11-23 03:00:00 -- 0 Calma -- -- 0 933 -- --
2020-11-23 02:00:00 -- 0 Calma 3 Nordeste 0 933.1 -- --
2020-11-23 01:00:00 -- 0 Calma 4 Nordeste 0 933 -- --
2020-11-23 00:00:00 -- 0 Calma 5 Nordeste 0 933.1 -- --
2020-11-22 23:00:00 4 4 Nordeste 6 Nordeste 0 933 -- 82
2020-11-22 22:00:00 -- 2 Nordeste 5 Nordeste 0 933 -- --
2020-11-22 21:00:00 -- 4 Nordeste 6 Nordeste 0 933 -- --
2020-11-22 20:00:00 7.1 0 Calma 4 Nordeste 0 932.9 -- 63
2020-11-22 19:00:00 9.5 0 Calma 0 Calma 0 932.8 -- 51
2020-11-22 18:00:00 12.4 0 Calma 4 Sudoeste 0 932.7 -- 41
2020-11-22 17:00:00 14.4 0 Calma 4 Noroeste 0 932.6 -- 36
2020-11-22 16:00:00 14.4 2 Sudoeste 9 Sudoeste 0 932.7 -- 38
2020-11-22 15:00:00 13.7 5 Sur 13 Sudoeste 0 932.7 -- 45
2020-11-22 14:00:00 12.8 4 Sur 13 Sudeste 0 932.7 -- 54
2020-11-22 13:00:00 10.3 7 Sur 15 Sur 0 932.7 -- 71
2020-11-22 12:00:00 6.7 5 Sur 13 Sur 0 932.9 -- 90
2020-11-22 11:00:00 5.5 0 Calma 9 Sur 0 932.9 -- 94
2020-11-22 10:00:00 4.7 3 Sur 9 Sur 0 933 -- 94
2020-11-22 09:00:00 3.8 0 Calma 5 Noroeste 0 933 -- 93
2020-11-22 08:00:00 -- 0 Calma 5 Noroeste 0 933.1 -- --
2020-11-22 07:00:00 -- 0 Calma 7 Noroeste 0 933.1 -- --
2020-11-22 06:00:00 -- 0 Calma 3 Nordeste 0 933 -- --
2020-11-22 05:00:00 -- 0 Calma 9 Sudoeste 0 933 -- --
2020-11-22 04:00:00 -- 0 Calma 24 Sudeste 0 933 -- --
2020-11-22 03:00:00 -- 7 Sudeste 24 Sudeste 0 932.9 -- --
2020-11-22 02:00:00 -- 10 Sudeste 27 Sudeste 0 933 -- --
2020-11-22 01:00:00 -- 6 Sudeste 19 Sudeste 0 932.9 -- --
2020-11-22 00:00:00 8.7 8 Sudeste 24 Sudeste 0 932.9 -- 68
2020-11-21 23:00:00 9 8 Sudeste 25 Sudeste 0 932.9 -- 66
2020-11-21 22:00:00 9.6 10 Sudeste 23 Sudeste 0 932.9 -- 63
2020-11-21 21:00:00 9.8 6 Sudeste 17 Sudeste 0 932.9 -- 61
2020-11-21 20:00:00 10.6 4 Este 9 Este 0 932.9 -- 56
2020-11-21 19:00:00 11.7 2 Este 8 Este 0 932.8 -- 55
2020-11-21 18:00:00 13.8 0 Calma 18 Sudeste 0 932.7 -- 51
2020-11-21 17:00:00 15.4 7 Sudeste 23 Sudeste 0 932.6 -- 44
2020-11-21 16:00:00 16.8 7 Sudeste 21 Sudeste 0 932.7 -- 37
2020-11-21 15:00:00 17.8 6 Sudeste 23 Sudeste 0 932.7 -- 38
2020-11-21 14:00:00 -- 8 Sudeste 22 Sudeste 0 932.7 -- --
2020-11-21 13:00:00 -- 5 Sudeste 17 Sudeste 0 932.7 -- --
2020-11-21 12:00:00 14 7 Sudeste 23 Sudeste 0 932.7 -- 58
2020-11-21 11:00:00 -- 6 Sudeste 42 Sudeste 0 932.8 -- --
2020-11-21 10:00:00 -- 4 Sudeste 23 Sudeste 0 932.8 -- --
2020-11-21 09:00:00 -- 3 Nordeste 6 Nordeste 0 933 -- --
2020-11-21 08:00:00 -- 5 Nordeste 8 Nordeste 0 932.9 -- --
2020-11-21 07:00:00 -- 0 Calma 4 Nordeste 0 933.1 -- --
2020-11-21 06:00:00 2.8 0 Calma 5 Norte 0 933 -- 74
2020-11-21 05:00:00 3.9 0 Calma 9 Nordeste 0 933 -- 67
2020-11-21 04:00:00 4.2 5 Nordeste 10 Nordeste 0 933 -- 65
2020-11-21 03:00:00 4.6 5 Nordeste 9 Norte 0 933 -- 62
2020-11-21 02:00:00 5.1 4 Nordeste 10 Este 0 932.9 -- 61
2020-11-21 01:00:00 5.4 7 Nordeste 18 Nordeste 0 932.9 -- 57
2020-11-21 00:00:00 6.3 9 Nordeste 17 Nordeste 0 933 -- 55
2020-11-20 23:00:00 7.6 4 Nordeste 15 Nordeste 0 932.9 -- 49
2020-11-20 22:00:00 8 10 Nordeste 18 Nordeste 0 932.9 -- 50
2020-11-20 21:00:00 9.1 6 Nordeste 12 Nordeste 0 932.8 -- 48
2020-11-20 20:00:00 10 4 Nordeste 13 Norte 0 932.8 -- 44
2020-11-20 19:00:00 -- 5 Nordeste 10 Nordeste 0 932.7 -- --
2020-11-20 18:00:00 14.9 2 Nordeste 17 Nordeste 0 932.7 -- 30
2020-11-20 17:00:00 16.5 12 Nordeste 24 Nordeste 0 932.6 -- 26
2020-11-20 16:00:00 17.5 15 Nordeste 29 Nordeste 0 932.6 -- 24
2020-11-20 15:00:00 -- 12 Nordeste 28 Nordeste 0 932.6 -- --
2020-11-20 14:00:00 -- 10 Nordeste 27 Nordeste 0 932.6 -- --
2020-11-20 13:00:00 15.4 16 Nordeste 28 Nordeste 0 932.7 -- 25
2020-11-20 12:00:00 14 14 Nordeste 35 Nordeste 0 932.7 -- 26
2020-11-20 11:00:00 12.1 11 Nordeste 21 Nordeste 0 932.7 -- 37
2020-11-20 10:00:00 9.3 7 Nordeste 12 Nordeste 0 932.7 -- 52
2020-11-20 09:00:00 6.9 0 Calma 12 Nordeste 0 932.8 -- 64
2020-11-20 08:00:00 7 7 Nordeste 17 Nordeste 0 932.9 -- 64
2020-11-20 07:00:00 7 3 Nordeste 13 Nordeste 0 932.9 -- 71
2020-11-20 06:00:00 7.1 8 Nordeste 20 Nordeste 0 932.9 -- 75
2020-11-20 05:00:00 8.7 17 Nordeste 27 Nordeste 0 932.7 -- 75
2020-11-20 04:00:00 8.1 9 Nordeste 15 Norte 0 932.8 -- 83
2020-11-20 03:00:00 8.7 6 Nordeste 13 Nordeste 0 932.8 -- 84
2020-11-20 02:00:00 9.7 4 Nordeste 14 Nordeste 0 932.9 -- 83
2020-11-20 01:00:00 10.9 5 Nordeste 14 Este 0 932.8 -- 79
2020-11-20 00:00:00 11.8 4 Nordeste 16 Nordeste 0 932.8 -- 76
2020-11-19 23:00:00 12.5 8 Nordeste 17 Nordeste 0 932.8 -- 75
2020-11-19 22:00:00 -- 7 Nordeste 13 Nordeste 0 932.8 -- --
2020-11-19 21:00:00 -- 7 Nordeste 14 Nordeste 0 932.7 -- --
2020-11-19 20:00:00 -- 8 Nordeste 18 Nordeste 0 932.7 -- --
2020-11-19 19:00:00 -- 8 Nordeste 14 Nordeste 0 932.7 -- --
2020-11-19 18:00:00 -- 0 Calma 12 Nordeste 0 932.6 -- --
2020-11-19 17:00:00 -- 6 Nordeste 15 Nordeste 0 932.6 -- --
2020-11-19 16:00:00 -- 6 Nordeste 13 Nordeste 0 932.6 -- --
2020-11-19 15:00:00 21.3 5 Nordeste 18 Norte 0 932.6 -- 36
2020-11-19 14:00:00 20.8 4 Nordeste 12 Nordeste 0 932.6 -- 38
2020-11-19 13:00:00 18.7 0 Calma 10 Nordeste 0 932.6 -- 43
2020-11-19 12:00:00 16.7 4 Nordeste 9 Norte 0.1 932.7 -- 49
2020-11-19 11:00:00 13.1 0 Calma 9 Norte 0 932.7 -- 72
2020-11-19 10:00:00 9.2 2 Noroeste 7 Noroeste 0 932.8 -- 91
2020-11-19 09:00:00 7.3 0 Calma 3 Sudeste 0 932.9 -- 91
2020-11-19 08:00:00 7.1 0 Calma 6 Noroeste 0 932.9 -- 91
2020-11-19 07:00:00 7.2 0 Calma 5 Nordeste 0 932.8 -- 91
2020-11-19 06:00:00 7.1 0 Calma 6 Noroeste 0 932.9 -- 90
2020-11-19 05:00:00 8 0 Calma 4 Noroeste 0 932.8 -- 90
2020-11-19 04:00:00 8.6 0 Calma 11 Nordeste 0 932.9 -- 90
2020-11-19 03:00:00 9 4 Nordeste 10 Nordeste 0 932.8 -- 91
2020-11-19 02:00:00 9.5 4 Norte 11 Nordeste 0 932.8 -- 90
2020-11-19 01:00:00 9.4 6 Nordeste 12 Nordeste 0 932.8 -- 90
2020-11-19 00:00:00 9.7 6 Nordeste 12 Nordeste 0 932.8 -- 89
2020-11-18 23:00:00 11.1 6 Nordeste 11 Norte 0 932.8 -- 87
2020-11-18 22:00:00 -- 0 Calma 7 Nordeste 0 932.8 -- --
2020-11-18 21:00:00 12.2 4 Nordeste 7 Nordeste 0 932.7 -- 83
2020-11-18 20:00:00 13.5 0 Calma 7 Nordeste 0 932.8 -- 75
2020-11-18 19:00:00 -- 3 Nordeste 6 Norte 0 932.7 -- --
2020-11-18 18:00:00 -- 3 Norte 8 Norte 0 932.7 -- --
2020-11-18 17:00:00 -- 4 Norte 10 Nordeste 0 932.6 -- --
2020-11-18 16:00:00 -- 4 Nordeste 12 Noroeste 0 932.6 -- --
2020-11-18 15:00:00 18.6 3 Norte 12 Norte 0 932.6 -- 55
2020-11-18 14:00:00 16.8 4 Nordeste 8 Norte 0 932.6 -- 72
2020-11-18 13:00:00 13.3 3 Nordeste 8 Nordeste 0 932.7 -- 94
2020-11-18 12:00:00 11.8 0 Calma 5 Noroeste 0 932.6 -- 94
2020-11-18 11:00:00 10.7 0 Calma 5 Noroeste 0 932.7 -- 93
2020-11-18 10:00:00 9.4 0 Calma 4 Nordeste 0 932.8 -- 93
2020-11-18 09:00:00 8.5 3 Nordeste 6 Nordeste 0 932.8 -- 93
2020-11-18 08:00:00 8.3 0 Calma -- -- 0 932.8 -- 93
2020-11-18 07:00:00 8.7 0 Calma -- -- 0 932.8 -- 93
2020-11-18 06:00:00 8 0 Calma 5 Nordeste 0 932.8 -- 93
2020-11-18 05:00:00 8 2 Nordeste 5 Nordeste 0 932.8 -- 93
2020-11-18 04:00:00 7.4 0 Calma 0 Calma 0 932.9 -- 92
2020-11-18 03:00:00 -- 0 Calma 4 Oeste 0 932.9 -- --
2020-11-18 02:00:00 9.5 0 Calma -- -- 0 932.8 -- 91
2020-11-18 01:00:00 -- 0 Calma 0 Calma 0 932.8 -- --
2020-11-18 00:00:00 10.2 0 Calma 3 Este 0 932.8 -- 90
2020-11-17 23:00:00 -- 0 Calma 4 Nordeste 0 932.8 -- --
2020-11-17 22:00:00 -- 0 Calma -- -- 0 932.8 -- --
2020-11-17 21:00:00 -- 0 Calma 3 Este 0 932.7 -- --
2020-11-17 20:00:00 -- 0 Calma -- -- 0 932.7 -- --
2020-11-17 19:00:00 -- 0 Calma -- -- 0 932.7 -- --
2020-11-17 18:00:00 16.3 0 Calma 8 Oeste 0 932.7 -- 71
2020-11-17 17:00:00 18.2 0 Calma 11 Sudoeste 0 932.5 -- 61
2020-11-17 16:00:00 18.5 4 Sudoeste 12 Oeste 0 932.6 -- 60
2020-11-17 15:00:00 18 3 Sudoeste 6 Sudoeste 0 932.6 -- 61
2020-11-17 14:00:00 15.5 2 Sudoeste 10 Oeste 0 932.6 -- 77
2020-11-17 13:00:00 13.5 3 Oeste 7 Oeste 0 932.7 -- 94
2020-11-17 12:00:00 11.4 0 Calma 4 Sudoeste 0 932.7 -- 94
2020-11-17 11:00:00 10.1 0 Calma 7 Sudoeste 0 932.8 -- 94
2020-11-17 10:00:00 9.5 0 Calma 6 Sur 0 932.7 -- 94
2020-11-17 09:00:00 8.5 0 Calma 5 Nordeste 0 932.8 -- 94
2020-11-17 08:00:00 -- 2 Nordeste 4 Nordeste 0 932.9 -- --
2020-11-17 07:00:00 -- 3 Nordeste 9 Sudoeste 0 932.8 -- --
2020-11-17 06:00:00 8.2 0 Calma 9 Sudoeste 0 932.8 -- 92
2020-11-17 05:00:00 -- 0 Calma -- -- 0 932.8 -- --
2020-11-17 04:00:00 8.9 0 Calma -- -- 0 932.8 -- 90
2020-11-17 03:00:00 -- 0 Calma 6 Nordeste 0 932.8 -- --
2020-11-17 02:00:00 -- 2 Nordeste 5 Nordeste 0 932.8 -- --
2020-11-17 01:00:00 -- 0 Calma 5 Nordeste 0 932.8 -- --
2020-11-17 00:00:00 10.5 3 Nordeste 8 Nordeste 0 932.8 -- 88
2020-11-16 23:00:00 11.6 5 Nordeste 8 Nordeste 0 932.8 -- 87
2020-11-16 22:00:00 12.4 0 Calma 2 Norte 0 932.7 -- 83
2020-11-16 21:00:00 13.3 0 Calma 8 Nordeste 0 932.7 -- 80
2020-11-16 20:00:00 14 4 Nordeste 6 Nordeste 0 932.7 -- 76
2020-11-16 19:00:00 15.1 3 Este 6 Este 0 932.7 -- 72
2020-11-16 18:00:00 16.5 4 Nordeste 8 Nordeste 0 932.7 -- 62
2020-11-16 17:00:00 18 3 Norte 14 Noroeste 0 932.7 -- 53
2020-11-16 16:00:00 18.7 8 Noroeste 15 Noroeste 0 932.6 -- 50
2020-11-16 15:00:00 18.8 5 Norte 15 Noroeste 0 932.6 -- 52
2020-11-16 14:00:00 18.2 5 Noroeste 16 Noroeste 0 932.6 -- 60
2020-11-16 13:00:00 -- 5 Noroeste 14 Noroeste 0 932.6 -- --
2020-11-16 12:00:00 -- 3 Norte 9 Noroeste 0 932.7 -- --
2020-11-16 11:00:00 14.8 2 Norte 8 Noroeste 0 932.7 -- 91
2020-11-16 10:00:00 13.8 0 Calma 8 Sudoeste 0 932.5 -- 92
2020-11-16 09:00:00 12.7 3 Sudoeste 6 Sudoeste 0 932.7 -- 92
2020-11-16 08:00:00 12.6 0 Calma 5 Sudoeste 0 932.8 -- 91
2020-11-16 07:00:00 -- 0 Calma 6 Sudoeste 0 932.8 -- --
2020-11-16 06:00:00 13 3 Sudoeste 6 Oeste 0 932.7 -- 90
2020-11-16 05:00:00 -- 3 Sudoeste 5 Sudoeste 0 932.8 -- --
2020-11-16 04:00:00 -- 0 Calma 9 Oeste 0 932.8 -- --
2020-11-16 03:00:00 12.9 0 Calma 8 Sudoeste 0 932.7 -- 90
2020-11-16 02:00:00 13.3 4 Sudoeste 9 Sudoeste 0 932.7 -- 89
2020-11-16 01:00:00 13.9 3 Sur 7 Sudoeste 0 932.8 -- 89
2020-11-16 00:00:00 -- 0 Calma 8 Sur 0 932.7 -- --
2020-11-15 23:00:00 14.6 4 Sur 10 Sur 0 932.7 -- 88
2020-11-15 22:00:00 15.1 2 Sur 7 Sudoeste 0 932.6 -- 86
2020-11-15 21:00:00 15.7 4 Sudoeste 11 Sudoeste 0 932.7 -- 84
2020-11-15 20:00:00 15.7 4 Sudoeste 9 Sudoeste 0 932.6 -- 84
2020-11-15 19:00:00 16.3 0 Calma 5 Sudoeste 0 932.6 -- 81
2020-11-15 18:00:00 16.8 4 Oeste 10 Oeste 0 932.6 -- 77
2020-11-15 17:00:00 17.3 8 Oeste 19 Oeste 0 932.7 -- 72
2020-11-15 16:00:00 17.8 9 Oeste 26 Oeste 0 932.6 -- 67
2020-11-15 15:00:00 17.9 5 Oeste 28 Oeste 0 932.6 -- 66
2020-11-15 14:00:00 18.1 8 Oeste 23 Sudoeste 0 932.7 -- 71
2020-11-15 13:00:00 16.1 10 Oeste 20 Oeste 0 932.7 -- 84
2020-11-15 12:00:00 -- 13 Sudoeste 22 Oeste 0 932.6 -- --
2020-11-15 11:00:00 -- 12 Sudoeste 21 Sudoeste 0 932.7 -- --
2020-11-15 10:00:00 13.3 6 Sudoeste 13 Sudoeste 0 932.8 -- 93
2020-11-15 09:00:00 -- 3 Sur 9 Sur 0 932.8 -- --
2020-11-15 08:00:00 -- 4 Sur 7 Sur 0 932.7 -- --
2020-11-15 07:00:00 -- 2 Sur 6 Sur 0.1 932.8 -- --
2020-11-15 06:00:00 -- 0 Calma 6 Sur 0 932.8 -- --
2020-11-15 05:00:00 -- 3 Sudoeste 13 Oeste 0 932.7 -- --
2020-11-15 04:00:00 10.9 6 Sudoeste 13 Sudoeste 0 932.8 -- 93
2020-11-15 03:00:00 11.9 3 Sudoeste 13 Sudoeste 0 932.8 -- 93
2020-11-15 02:00:00 12.8 8 Sudoeste 15 Sudoeste 0 932.7 -- 93
2020-11-15 01:00:00 13.2 4 Sudoeste 15 Oeste 0 932.7 -- 93
2020-11-15 00:00:00 13.4 7 Oeste 14 Oeste 0.1 932.7 -- 93
2020-11-14 23:00:00 13.5 8 Sudoeste 13 Oeste 0 932.8 -- 93
2020-11-14 22:00:00 13.5 4 Sudoeste 10 Sur 0.1 932.8 -- 93
2020-11-14 21:00:00 13.7 0 Calma 6 Sudoeste 0.2 932.8 -- 93
2020-11-14 20:00:00 13.7 4 Sur 6 Sur 0 932.8 -- 92
2020-11-14 19:00:00 13.9 0 Calma 2 Sudoeste 0.1 932.7 -- 91
2020-11-14 18:00:00 13.9 0 Calma 7 Sudoeste 0.5 932.8 -- 89
2020-11-14 17:00:00 14 4 Sudoeste 11 Oeste 0.1 932.7 -- 87
2020-11-14 16:00:00 14.2 5 Sudoeste 11 Sudoeste 0.2 932.7 -- 87
2020-11-14 15:00:00 13.9 6 Sur 12 Sur 0 932.7 -- 85
2020-11-14 14:00:00 13.5 3 Sur 11 Sur 0 932.7 -- 91
2020-11-14 13:00:00 12.9 5 Sur 14 Sur 0.1 932.7 -- 92
2020-11-14 12:00:00 12.5 3 Sur 13 Sur 0.2 932.7 -- 92
2020-11-14 11:00:00 12 6 Sur 14 Sur 0.8 932.6 -- 92
2020-11-14 10:00:00 -- 6 Sur 13 Sur 0 932.8 -- --
2020-11-14 09:00:00 -- 5 Sur 11 Sur 0 932.8 -- --
2020-11-14 08:00:00 11.5 4 Sudeste 11 Sur 0 932.8 -- 89
2020-11-14 07:00:00 11.7 4 Sur 12 Sudeste 0 932.8 -- 88
2020-11-14 06:00:00 11.7 5 Sur 11 Sur 0 932.7 -- 85
2020-11-14 05:00:00 12.1 3 Sur 15 Sur 0 932.7 -- 83
2020-11-14 04:00:00 11.9 4 Sur 11 Sur 0 932.5 -- 83
2020-11-14 03:00:00 11.2 2 Sudeste 6 Sudeste 0 932.8 -- 80
2020-11-14 02:00:00 10.9 0 Calma 3 Sur 0 932.6 -- 79
2020-11-14 01:00:00 11.2 0 Calma 2 Sur 0 932.8 -- 76
2020-11-14 00:00:00 11.1 0 Calma 4 Este 0 932.9 -- 75
2020-11-13 23:00:00 11 0 Calma 4 Este 0 932.8 -- 76
2020-11-13 22:00:00 10.8 0 Calma 3 Este 0 932.8 -- 75
2020-11-13 21:00:00 11.5 0 Calma 6 Sur 0 932.6 -- 72
2020-11-13 20:00:00 -- 0 Calma 3 Sur 0 932.8 -- --
2020-11-13 19:00:00 -- 0 Calma 5 Sudoeste 0 932.7 -- --
2020-11-13 18:00:00 -- 3 Sudoeste 11 Sudoeste 0 932.7 -- --
2020-11-13 17:00:00 -- 6 Sur 10 Sur 0 932.6 -- --
2020-11-13 16:00:00 -- 3 Sudoeste 14 Oeste 0 932.5 -- --
2020-11-13 15:00:00 -- 3 Sur 12 Oeste 0 932.6 -- --
2020-11-13 14:00:00 -- 3 Sudoeste 11 Sudoeste 0 932.7 -- --
2020-11-13 13:00:00 16 6 Sudoeste 13 Sur 0 932.7 -- 53
2020-11-13 12:00:00 15.8 7 Sur 14 Sudeste 0 932.7 -- 61
2020-11-13 11:00:00 14.2 8 Sur 17 Sudeste 0 932.7 -- 71
2020-11-13 10:00:00 11.6 5 Sur 16 Sudeste 0 932.8 -- 83
2020-11-13 09:00:00 10.5 5 Sur 15 Sur 0 932.8 -- 86
2020-11-13 08:00:00 9.7 5 Sudeste 13 Sur 0 932.8 -- 86
2020-11-13 07:00:00 9.8 5 Sudeste 16 Sudeste 0 932.9 -- 83
2020-11-13 06:00:00 10 8 Sudeste 21 Sur 0 932.8 -- 80
2020-11-13 05:00:00 10 9 Sudeste 21 Sudeste 0 932.8 -- 79
2020-11-13 04:00:00 10.7 8 Sudeste 23 Sudeste 0 932.6 -- 79
2020-11-13 03:00:00 10.8 9 Sudeste 24 Sudeste 0 932.8 -- 79
2020-11-13 02:00:00 10.8 8 Sudeste 26 Sudeste 0 932.8 -- 78
2020-11-13 01:00:00 -- 11 Sudeste 27 Sudeste 0 932.8 -- --
2020-11-13 00:00:00 -- 10 Sudeste 23 Sudeste 0 932.8 -- --
2020-11-12 23:00:00 -- 8 Sudeste 20 Sudeste 0 932.7 -- --
2020-11-12 22:00:00 -- 6 Sudeste 19 Sudeste 0 932.8 -- --
2020-11-12 21:00:00 -- 6 Sudeste 18 Sudeste 0 932.8 -- --
2020-11-12 20:00:00 11.7 3 Este 10 Este 0 932.8 -- 69
2020-11-12 19:00:00 -- 6 Este 13 Este 0 932.7 -- --
2020-11-12 18:00:00 -- 2 Sudeste 13 Sudeste 0 932.7 -- --
2020-11-12 17:00:00 17.3 4 Sudeste 21 Sudeste 0 932.6 -- 42
2020-11-12 16:00:00 18 5 Sudeste 21 Sudeste 0 932.7 -- 39
2020-11-12 15:00:00 18.1 8 Sudeste 21 Sudeste 0 932.5 -- 42
2020-11-12 14:00:00 16.6 5 Sudeste 16 Sudeste 0 932.7 -- 49
2020-11-12 13:00:00 15.4 7 Sudeste 17 Sudeste 0.1 932.7 -- 53
2020-11-12 12:00:00 16.1 5 Sudeste 15 Sur 0 932.7 -- 56
2020-11-12 11:00:00 13 6 Este 13 Nordeste 0 932.7 -- 76
2020-11-12 10:00:00 10.1 4 Nordeste 7 Nordeste 0 932.8 -- 88
2020-11-12 09:00:00 7.7 4 Nordeste 7 Nordeste 0 932.9 -- 90
2020-11-12 08:00:00 7.3 0 Calma -- -- 0 932.9 -- 90
2020-11-12 07:00:00 7.5 0 Calma 4 Nordeste 0 932.9 -- 90
2020-11-12 06:00:00 -- 0 Calma 3 Nordeste 0 932.9 -- --
2020-11-12 05:00:00 7.1 0 Calma 4 Nordeste 0 932.9 -- 88
2020-11-12 04:00:00 8 3 Nordeste 8 Nordeste 0 932.9 -- 85
2020-11-12 03:00:00 -- 2 Este 9 Sudeste 0 932.8 -- --
2020-11-12 02:00:00 10.4 0 Calma 9 Sudeste 0 932.8 -- 77
2020-11-12 01:00:00 -- 4 Sudeste 10 Sudeste 0 932.8 -- --
2020-11-12 00:00:00 11.1 0 Calma 12 Sudeste 0 932.8 -- 76
2020-11-11 23:00:00 -- 0 Calma 7 Sudeste 0 932.8 -- --
2020-11-11 22:00:00 11.2 0 Calma 5 Sudeste 0 932.8 -- 74
2020-11-11 21:00:00 11.6 0 Calma 5 Este 0 932.7 -- 72
2020-11-11 20:00:00 12.2 0 Calma 5 Este 0 932.7 -- 68
2020-11-11 19:00:00 13.4 3 Nordeste 6 Este 0 932.6 -- 64
2020-11-11 18:00:00 14.9 2 Norte 5 Norte 0 932.6 -- 55
2020-11-11 17:00:00 17.5 0 Calma 7 Norte 0 932.5 -- 45
2020-11-11 16:00:00 18.1 0 Calma 8 Sudeste 0 932.6 -- 45
2020-11-11 15:00:00 18.2 3 Sudeste 12 Sur 0 932.6 -- 47
2020-11-11 14:00:00 17.4 4 Sudeste 17 Sudeste 0 932.6 -- 53
2020-11-11 13:00:00 15.7 7 Sudeste 23 Sur 0 932.6 -- 62
2020-11-11 12:00:00 -- 9 Sur 24 Sudeste 0 932.7 -- --
2020-11-11 11:00:00 13.6 10 Sudeste 22 Sudeste 0 932.7 -- 71
2020-11-11 10:00:00 12.3 6 Sudeste 18 Sudeste 0 932.7 -- 81
2020-11-11 09:00:00 -- 2 Sudeste 9 Sudeste 0 932.8 -- --
2020-11-11 08:00:00 9 0 Calma 19 Sudeste 0 932.9 -- 94
2020-11-11 07:00:00 8.7 6 Sudeste 19 Sudeste 0 932.9 -- 94
2020-11-11 06:00:00 -- 8 Sudeste 18 Sudeste 0 932.9 -- --
2020-11-11 05:00:00 -- 0 Calma 3 Norte 0 933 -- --
2020-11-11 04:00:00 6.9 0 Calma -- -- 0 932.9 -- 89
2020-11-11 03:00:00 7.2 0 Calma 4 Sur 0 932.8 -- 87
2020-11-11 02:00:00 7.4 3 Sudoeste 8 Nordeste 0 932.9 -- 86
2020-11-11 01:00:00 8.3 2 Nordeste 6 Este 0 932.9 -- 84
2020-11-11 00:00:00 7.8 4 Nordeste 6 Nordeste 0 932.9 -- 84
2020-11-10 23:00:00 8.8 6 Nordeste 10 Nordeste 0 932.8 -- 80
2020-11-10 22:00:00 9.3 5 Nordeste 9 Nordeste 0 932.8 -- 79
2020-11-10 21:00:00 10.9 4 Nordeste 10 Nordeste 0 932.8 -- 77
2020-11-10 20:00:00 11.7 3 Nordeste 7 Nordeste 0 932.7 -- 72
2020-11-10 19:00:00 12.8 4 Nordeste 8 Nordeste 0 932.7 -- 66
2020-11-10 18:00:00 14.9 5 Nordeste 11 Norte 0 932.7 -- 52
2020-11-10 17:00:00 16.5 4 Norte 13 Nordeste 0 932.5 -- 44
2020-11-10 16:00:00 17.4 5 Nordeste 13 Nordeste 0 932.6 -- 41
2020-11-10 15:00:00 -- 5 Norte 13 Norte 0 932.5 -- --
2020-11-10 14:00:00 -- 6 Norte 14 Norte 0 932.6 -- --
2020-11-10 13:00:00 15.7 4 Nordeste 11 Norte 0 932.6 -- 58
2020-11-10 12:00:00 -- 0 Calma 8 Noroeste 0 932.7 -- --
2020-11-10 11:00:00 -- 3 Sudoeste 6 Sudoeste 0 932.7 -- --
2020-11-10 10:00:00 -- 0 Calma 3 Oeste 0 932.8 -- --
2020-11-10 09:00:00 6.7 0 Calma 8 Nordeste 0 932.9 -- 94
2020-11-10 08:00:00 6 0 Calma 10 Nordeste 0 932.9 -- 94
2020-11-10 07:00:00 5.9 4 Nordeste 9 Norte 0 932.9 -- 94
2020-11-10 06:00:00 6.3 0 Calma 7 Nordeste 0 932.9 -- 94
2020-11-10 05:00:00 6.3 4 Nordeste 6 Nordeste 0 932.9 -- 94
2020-11-10 04:00:00 7.2 2 Nordeste 9 Nordeste 0 932.9 -- 95
2020-11-10 03:00:00 7.4 3 Nordeste 7 Nordeste 0 932.9 -- 94
2020-11-10 02:00:00 8.2 0 Calma 6 Nordeste 0 932.9 -- 95
2020-11-10 01:00:00 8.8 2 Nordeste 4 Nordeste 0 932.9 -- 93
2020-11-10 00:00:00 9.5 0 Calma 0 Calma 0 932.9 -- 93
2020-11-09 23:00:00 10.2 0 Calma 6 Nordeste 0 932.8 -- 93
2020-11-09 22:00:00 10.6 3 Nordeste 8 Nordeste 0 932.7 -- 93
2020-11-09 21:00:00 -- 0 Calma 3 Nordeste 0 932.8 -- --
2020-11-09 20:00:00 -- 0 Calma 5 Nordeste 0 932.8 -- --
2020-11-09 19:00:00 13.6 0 Calma 5 Noroeste 0 932.8 -- 80
2020-11-09 18:00:00 -- 0 Calma 6 Norte 0 932.7 -- --
2020-11-09 17:00:00 15.7 0 Calma 9 Oeste 0 932.7 -- 68
2020-11-09 16:00:00 -- 4 Sudoeste 11 Sudoeste 0 932.7 -- --
2020-11-09 15:00:00 -- 3 Oeste 10 Sudoeste 0 932.7 -- --
2020-11-09 14:00:00 14.6 3 Oeste 16 Oeste 0 932.7 -- 78
2020-11-09 13:00:00 13.8 6 Sudoeste 12 Oeste 0.1 932.7 -- 86
2020-11-09 12:00:00 12.6 6 Sudoeste 14 Sur 0 932.7 -- 91
2020-11-09 11:00:00 11.7 4 Sur 14 Sudeste 1 932.8 -- 93
2020-11-09 10:00:00 10.7 4 Sur 10 Sur 2.3 932.6 -- 93
2020-11-09 09:00:00 10.8 4 Sudeste 9 Sudeste 2.5 932.7 -- 92
2020-11-09 08:00:00 10.7 2 Sur 5 Sur 0.6 932.8 -- 90
2020-11-09 07:00:00 10.6 0 Calma 9 Noroeste 0 932.8 -- 85
2020-11-09 06:00:00 10.7 2 Sudeste 7 Sur 0 932.8 -- 82
2020-11-09 05:00:00 10.9 2 Sur 8 Sur 0 932.8 -- 81
2020-11-09 04:00:00 11.3 3 Sur 8 Sur 0 932.7 -- 80
2020-11-09 03:00:00 11.4 3 Sur 10 Sudeste 0 932.8 -- 80
2020-11-09 02:00:00 11.4 3 Sur 10 Sudeste 0 932.8 -- 81
2020-11-09 01:00:00 -- 3 Sudeste 9 Sudeste 0 932.8 -- --
2020-11-09 00:00:00 -- 0 Calma 8 Sur 0 932.8 -- --
2020-11-08 23:00:00 -- 0 Calma 7 Sudeste 0 932.8 -- --
2020-11-08 22:00:00 -- 3 Sudeste 6 Sudeste 0 932.8 -- --
2020-11-08 21:00:00 -- 0 Calma 4 Este 0 932.8 -- --
2020-11-08 20:00:00 12.9 0 Calma 4 Sudeste 0 932.7 -- 72
2020-11-08 19:00:00 -- 0 Calma 4 Oeste 0 932.7 -- --
2020-11-08 18:00:00 15.5 0 Calma 11 Oeste 0 932.7 -- 56
2020-11-08 17:00:00 16.1 5 Sudoeste 14 Oeste 0 932.7 -- 49
2020-11-08 16:00:00 16.3 9 Sudoeste 26 Oeste 0 932.6 -- 46
2020-11-08 15:00:00 17.5 6 Sudoeste 22 Sudoeste 0 932.7 -- 45
2020-11-08 14:00:00 16.6 8 Sudoeste 19 Sudoeste 0 932.6 -- 49
2020-11-08 13:00:00 17.1 6 Sur 15 Sur 0 932.7 -- 54
2020-11-08 12:00:00 14.6 8 Sur 16 Sur 0 932.6 -- 65
2020-11-08 11:00:00 13.4 5 Sur 14 Sudeste 0 932.6 -- 71
2020-11-08 10:00:00 11.4 5 Sur 12 Sudeste 0 932.8 -- 83
2020-11-08 09:00:00 8.9 5 Sudeste 13 Sudeste 0 932.9 -- 91
2020-11-08 08:00:00 7.4 4 Sudeste 10 Sudeste 0 932.9 -- 91
2020-11-08 07:00:00 7.6 0 Calma 5 Sudeste 0 932.9 -- 91
2020-11-08 06:00:00 7.6 0 Calma 8 Sudeste 0 932.9 -- 91
2020-11-08 05:00:00 8 0 Calma 6 Sudeste 0 932.9 -- 90
2020-11-08 04:00:00 8.6 3 Sudeste 15 Sudeste 0 932.8 -- 89
2020-11-08 03:00:00 9 6 Sur 14 Sudeste 0 932.8 -- 89
2020-11-08 02:00:00 9 2 Sudeste 10 Sudeste 0 932.9 -- 89
2020-11-08 01:00:00 9.2 3 Sudeste 7 Sudeste 0 932.9 -- 89
2020-11-08 00:00:00 -- 2 Sudeste 6 Sudeste 0 932.8 -- --
2020-11-07 23:00:00 -- 2 Sudeste 9 Sudeste 0 932.8 -- --
2020-11-07 22:00:00 10.8 0 Calma 8 Sudoeste 0 932.8 -- 83
2020-11-07 21:00:00 -- 2 Oeste 8 Oeste 0 932.8 -- --
2020-11-07 20:00:00 -- 5 Oeste 7 Oeste 0 932.7 -- --
2020-11-07 19:00:00 -- 2 Oeste 14 Oeste 0 932.8 -- --
2020-11-07 18:00:00 -- 10 Oeste 21 Oeste 0 932.7 -- --
2020-11-07 17:00:00 15.1 3 Oeste 23 Oeste 0 932.6 -- 62
2020-11-07 16:00:00 15.4 4 Oeste 30 Sudoeste 0 932.7 -- 61
2020-11-07 15:00:00 14.3 13 Oeste 32 Sudoeste 0 932.7 -- 68
2020-11-07 14:00:00 15.2 0 Calma 36 Sudoeste 0 932.7 -- 73
2020-11-07 13:00:00 14.1 19 Sudoeste 30 Sudoeste 0 932.7 -- 76
2020-11-07 12:00:00 13 18 Sudoeste 30 Sudoeste 0 932.8 -- 80
2020-11-07 11:00:00 11.8 11 Sudoeste 23 Sudoeste 0 932.8 -- 88
2020-11-07 10:00:00 11.8 9 Sudoeste 23 Sudeste 0 932.8 -- 83
2020-11-07 09:00:00 11.7 11 Sur 19 Sur 0 932.7 -- 83
2020-11-07 08:00:00 11.5 5 Sur 13 Sudoeste 0 932.8 -- 82
2020-11-07 07:00:00 12.1 5 Sudoeste 28 Sudoeste 0 932.7 -- 84
2020-11-07 06:00:00 12.7 21 Sudoeste 37 Sudoeste 0.1 932.7 -- 83
2020-11-07 05:00:00 -- 7 Sudoeste 20 Sur 0 932.7 -- --
2020-11-07 04:00:00 12.1 8 Sur 17 Sudoeste 0.4 932.8 -- 92
2020-11-07 03:00:00 -- 10 Sudoeste 37 Sudoeste 4.2 932.7 -- --
2020-11-07 02:00:00 -- 18 Sudoeste 39 Sudoeste 2.8 932.6 -- --
2020-11-07 01:00:00 -- 7 Sur 30 Sudeste 2.3 932.7 -- --
2020-11-07 00:00:00 15.5 14 Sudeste 32 Sudeste 0 932.7 -- 84
2020-11-06 23:00:00 -- 13 Sudeste 35 Sudeste 0 932.7 -- --
2020-11-06 22:00:00 15.8 11 Sudeste 35 Sudeste 0 932.7 -- 82
2020-11-06 21:00:00 15.9 13 Sudeste 42 Sudeste 0 932.7 -- 80
2020-11-06 20:00:00 15.9 15 Sudeste 48 Sudeste 0 932.7 -- 79
2020-11-06 19:00:00 16.3 18 Sudeste 50 Sudeste 0 932.7 -- 76
2020-11-06 18:00:00 16.7 14 Sudeste 44 Sudeste 0 932.7 -- 75
2020-11-06 17:00:00 17.3 18 Sudeste 53 Sudeste 0 932.6 -- 72
2020-11-06 16:00:00 18 21 Sudeste 52 Sudeste 0 932.6 -- 68
2020-11-06 15:00:00 18.8 17 Sudeste 61 Sudeste 0 932.7 -- 65
2020-11-06 14:00:00 18.3 22 Sudeste 57 Sudeste 0 932.6 -- 67
2020-11-06 13:00:00 18.2 21 Sudeste 58 Sudeste 0 932.7 -- 68
2020-11-06 12:00:00 17.5 24 Sudeste 68 Sudeste 0 932.7 -- 72
2020-11-06 11:00:00 16.6 21 Sudeste 61 Sudeste 0 932.6 0 77
2020-11-06 10:00:00 -- 18 Sudeste 50 Sudeste 0 932.8 -- --
2020-11-06 09:00:00 14.9 14 Sudeste 42 Sudeste 0 932.7 -- 85
2020-11-06 08:00:00 14.3 13 Sudeste 37 Sudeste 0 932.6 -- 88
2020-11-06 07:00:00 14.1 12 Sudeste 38 Sudeste 0 932.8 -- 89
2020-11-06 06:00:00 -- 14 Sudeste 43 Sudeste 0 932.8 -- --
2020-11-06 05:00:00 -- 15 Sudeste 33 Sudeste 0 932.8 -- --
2020-11-06 04:00:00 -- 15 Sudeste 35 Sudeste 0 932.6 -- --
2020-11-06 03:00:00 13.4 16 Sudeste 41 Sudeste 0 932.7 -- 90
2020-11-06 02:00:00 12.9 13 Sudeste 39 Sudeste 0 932.8 -- 90
2020-11-06 01:00:00 12.9 13 Sudeste 42 Sudeste 0 932.8 -- 91
2020-11-06 00:00:00 12.6 12 Sudeste 36 Sudeste 0 932.8 -- 90
2020-11-05 23:00:00 13 14 Sudeste 32 Sudeste 0 932.8 -- 88
2020-11-05 22:00:00 13.1 12 Sudeste 34 Sudeste 0 932.8 -- 88
2020-11-05 21:00:00 13.1 11 Sudeste 36 Sudeste 0 932.8 -- 89
2020-11-05 20:00:00 13.2 13 Sudeste 32 Sudeste 0 932.8 -- 89
2020-11-05 19:00:00 13.6 13 Sudeste 41 Sudeste 0 932.8 -- 84
2020-11-05 18:00:00 13.4 14 Sudeste 36 Sudeste 0.1 932.7 -- 86
2020-11-05 17:00:00 13.5 9 Sudeste 33 Sudeste 0.1 932.8 -- 86
2020-11-05 16:00:00 13.3 10 Sudeste 34 Nordeste 1.3 932.8 -- 90
2020-11-05 15:00:00 12.8 7 Sudeste 25 Sudeste 4 932.7 -- 91
2020-11-05 14:00:00 12.7 3 Este 42 Sudeste 1.7 932.8 -- 88
2020-11-05 13:00:00 12.5 21 Sudeste 53 Sudeste 1.1 932.8 -- 83
2020-11-05 12:00:00 -- 13 Sudeste 45 Sudeste 0 932.8 -- --
2020-11-05 11:00:00 13.6 14 Sudeste 52 Sudeste 0.1 932.8 -- 79
2020-11-05 10:00:00 12.7 14 Sudeste 48 Sudeste 0.1 932.8 -- 84
2020-11-05 09:00:00 12 19 Sudeste 52 Sudeste 0.1 932.8 -- 86
2020-11-05 08:00:00 -- 13 Sudeste 34 Sudeste 1.2 932.8 -- --
2020-11-05 07:00:00 -- 12 Sudeste 40 Sudeste 0.1 932.8 -- --
2020-11-05 06:00:00 12 12 Sudeste 42 Sudeste 0 932.7 -- 78
2020-11-05 05:00:00 11.9 11 Sudeste 44 Sudeste 0 932.8 -- 76
2020-11-05 04:00:00 11.4 10 Sudeste 46 Sudeste 0 932.8 -- 78
2020-11-05 03:00:00 11.3 10 Sudeste 39 Sudeste 0 932.8 -- 81
2020-11-05 02:00:00 11.6 13 Sudeste 41 Sudeste 0 932.6 -- 83
2020-11-05 01:00:00 11.5 13 Sudeste 38 Sudeste 0 932.8 -- 84
2020-11-05 00:00:00 11.3 12 Sudeste 40 Sudeste 0 932.8 -- 87
2020-11-04 23:00:00 11.3 16 Sudeste 47 Sudeste 0 932.9 -- 88
2020-11-04 22:00:00 10.9 13 Sudeste 36 Sudeste 0 932.8 -- 88
2020-11-04 21:00:00 10.7 14 Sudeste 39 Sudeste 0.1 932.9 -- 88
2020-11-04 20:00:00 10.9 9 Sudeste 30 Sudeste 0 932.8 -- 89
2020-11-04 19:00:00 11 11 Sudeste 31 Sudeste 2.4 932.9 -- 91
2020-11-04 18:00:00 11.1 7 Sudeste 27 Sudeste 0.8 932.8 -- 90
2020-11-04 17:00:00 11.8 5 Sudeste 29 Sudeste 0.1 932.8 -- 88
2020-11-04 16:00:00 11.9 6 Sudeste 25 Sudeste 0.4 932.9 -- 91
2020-11-04 15:00:00 -- 5 Sudeste 26 Sudeste 1.7 932.8 -- --
2020-11-04 14:00:00 11.4 12 Sudeste 33 Sudeste 1.9 932.9 -- 91
2020-11-04 13:00:00 12 10 Sudeste 30 Sudeste 0.1 932.8 -- 88
2020-11-04 12:00:00 -- 10 Sudeste 28 Sudeste 0 932.8 -- --
2020-11-04 11:00:00 -- 7 Sudeste 24 Sudeste 0 932.8 0 --
2020-11-04 10:00:00 11.8 11 Sudeste 24 Sudeste 0 932.8 -- 88
2020-11-04 09:00:00 11.5 6 Sudeste 17 Sudeste 0 932.9 -- 91
2020-11-04 08:00:00 11.4 5 Sudeste 13 Sudeste 0 932.8 -- 92
2020-11-04 07:00:00 11.5 3 Sudeste 10 Sudeste 0 932.9 -- 91
2020-11-04 06:00:00 11.7 2 Sudeste 10 Sudeste 0 932.9 -- 92
2020-11-04 05:00:00 11.8 0 Calma 6 Nordeste 0 932.9 -- 92
2020-11-04 04:00:00 11.7 3 Nordeste 6 Nordeste 0 932.9 -- 92
2020-11-04 03:00:00 11.8 0 Calma 10 Nordeste 0 932.8 -- 92
2020-11-04 02:00:00 11.7 5 Nordeste 9 Nordeste 0 932.9 -- 93
2020-11-04 01:00:00 12.2 2 Norte 6 Norte 0 932.8 -- 93
2020-11-04 00:00:00 12.3 5 Norte 8 Noroeste 0 932.9 -- 93
2020-11-03 23:00:00 13 4 Noroeste 12 Noroeste 0.2 932.8 -- 90
2020-11-03 22:00:00 13.1 5 Sudeste 19 Nordeste 1.4 932.9 -- 90
2020-11-03 21:00:00 -- 5 Nordeste 18 Nordeste 0.3 932.9 -- --
2020-11-03 20:00:00 14.1 5 Nordeste 15 Nordeste 0 932.9 -- 84
2020-11-03 19:00:00 -- 10 Nordeste 22 Nordeste 0 932.9 -- --
2020-11-03 18:00:00 14.5 11 Nordeste 29 Nordeste 0.1 932.8 -- 80
2020-11-03 17:00:00 -- 16 Nordeste 32 Nordeste 1.2 932.8 -- --
2020-11-03 16:00:00 -- 13 Nordeste 31 Nordeste 0 932.6 -- --
2020-11-03 15:00:00 -- 13 Nordeste 24 Nordeste 0 932.7 -- --
2020-11-03 14:00:00 21 6 Nordeste 18 Norte 0 932.7 -- 46
2020-11-03 13:00:00 20.6 8 Nordeste 17 Nordeste 0 932.7 -- 54
2020-11-03 12:00:00 18.7 4 Nordeste 12 Nordeste 0 932.7 -- 65
2020-11-03 11:00:00 17.4 4 Norte 12 Nordeste 0 932.8 -- 72
2020-11-03 10:00:00 15.5 5 Noroeste 14 Nordeste 0 932.8 -- 83
2020-11-03 09:00:00 13.8 3 Nordeste 6 Nordeste 0 932.9 -- 90
2020-11-03 08:00:00 12.1 3 Nordeste 6 Nordeste 0 932.8 -- 87
2020-11-03 07:00:00 12 0 Calma 4 Nordeste 0 932.9 -- 80
2020-11-03 06:00:00 11.7 0 Calma -- -- 0 932.9 -- 78
2020-11-03 05:00:00 12.1 0 Calma -- -- 0 932.9 -- 74
2020-11-03 04:00:00 12.7 0 Calma 5 Nordeste 0 932.9 -- 72
2020-11-03 03:00:00 -- 0 Calma 4 Nordeste 0 932.9 -- --
2020-11-03 02:00:00 -- 0 Calma 4 Nordeste 0 932.9 -- --
2020-11-03 01:00:00 -- 0 Calma 5 Nordeste 0 932.9 -- --
2020-11-03 00:00:00 15 2 Nordeste 5 Nordeste 0 932.8 -- 63
2020-11-02 23:00:00 -- 3 Nordeste 6 Nordeste 0 932.9 -- --
2020-11-02 22:00:00 -- 3 Nordeste 10 Nordeste 0 932.8 -- --
2020-11-02 21:00:00 -- 4 Nordeste 7 Nordeste 0 932.8 -- --
2020-11-02 20:00:00 17.5 3 Nordeste 7 Nordeste 0 932.8 -- 42
2020-11-02 19:00:00 19.4 0 Calma 4 Nordeste 0 932.7 -- 37
2020-11-02 18:00:00 21.1 0 Calma 5 Nordeste 0 932.7 -- 34
2020-11-02 17:00:00 22.6 3 Norte 10 Noroeste 0 932.7 -- 31
2020-11-02 16:00:00 23.7 3 Noroeste 11 Noroeste 0 932.7 -- 30
2020-11-02 15:00:00 23.8 4 Noroeste 13 Noroeste 0 932.7 -- 32
2020-11-02 14:00:00 23.1 3 Oeste 12 Noroeste 0 932.7 -- 35
2020-11-02 13:00:00 21.7 3 Noroeste 8 Sudoeste 0 932.6 -- 40
2020-11-02 12:00:00 19.4 2 Sudoeste 9 Sudoeste 0 932.7 -- 44
2020-11-02 11:00:00 16.8 3 Sudoeste 8 Sudoeste 0 932.8 -- 54
2020-11-02 10:00:00 -- 0 Calma -- -- 0 932.8 -- --
2020-11-02 09:00:00 8.7 0 Calma 4 Nordeste 0 933 -- 83
2020-11-02 08:00:00 -- 0 Calma 4 Nordeste 0 933 -- --
2020-11-02 07:00:00 -- 0 Calma -- -- 0 933 -- --
2020-11-02 06:00:00 -- 0 Calma -- -- 0 933 -- --
2020-11-02 05:00:00 -- 0 Calma 5 Nordeste 0 933 -- --
2020-11-02 04:00:00 -- 0 Calma 6 Nordeste 0 933 -- --
2020-11-02 03:00:00 8.7 0 Calma 5 Nordeste 0 932.9 -- 79
2020-11-02 02:00:00 10.5 0 Calma 5 Nordeste 0 932.9 -- 76
2020-11-02 01:00:00 10.4 0 Calma 8 Nordeste 0 932.9 -- 76
2020-11-02 00:00:00 10.7 3 Nordeste 7 Nordeste 0 932.9 -- 76
2020-11-01 23:00:00 11.7 2 Nordeste 6 Nordeste 0 932.8 -- 72
2020-11-01 22:00:00 13.3 0 Calma 5 Nordeste 0 932.8 -- 65
2020-11-01 21:00:00 13.7 4 Nordeste 8 Nordeste 0 932.8 -- 60
2020-11-01 20:00:00 16.2 0 Calma 5 Noroeste 0 932.7 -- 51
2020-11-01 19:00:00 17.8 3 Noroeste 5 Noroeste 0 932.7 -- 44
2020-11-01 18:00:00 20.7 2 Noroeste 8 Noroeste 0 932.7 -- 37
2020-11-01 17:00:00 22.1 4 Noroeste 10 Noroeste 0 932.7 -- 35
2020-11-01 16:00:00 23.6 3 Noroeste 12 Noroeste 0 932.7 -- 35
2020-11-01 15:00:00 -- 4 Noroeste 13 Noroeste 0 932.7 -- --
2020-11-01 14:00:00 -- 3 Noroeste 12 Noroeste 0 932.7 -- --
2020-11-01 13:00:00 -- 4 Noroeste 11 Norte 0 932.7 -- --
2020-11-01 12:00:00 20.2 2 Noroeste 8 Noroeste 0 932.7 -- 53
2020-11-01 11:00:00 -- 0 Calma 7 Norte 0 932.7 -- --
2020-11-01 10:00:00 -- 0 Calma 4 Nordeste 0 932.9 -- --
2020-11-01 09:00:00 9.6 3 Nordeste 5 Nordeste 0 932.9 -- 88
2020-11-01 08:00:00 7.5 0 Calma 4 Nordeste 0 933 -- 87
2020-11-01 07:00:00 8.9 0 Calma 0 Calma 0 932.9 -- 83
2020-11-01 06:00:00 9 0 Calma 6 Nordeste 0 933 -- 83
2020-11-01 05:00:00 8.8 0 Calma -- -- 0 933 -- 81
2020-11-01 04:00:00 9.3 0 Calma 5 Nordeste 0 932.9 -- 81
2020-11-01 03:00:00 9.6 0 Calma 14 Nordeste 0 932.9 -- 79
2020-11-01 02:00:00 9.8 4 Nordeste 9 Nordeste 0 932.9 -- 78
2020-11-01 01:00:00 10.6 2 Nordeste 6 Nordeste 0 932.9 -- 75
2020-11-01 00:00:00 11.3 3 Nordeste 8 Nordeste 0 932.9 -- 72
2020-10-31 23:00:00 12.7 0 Calma 6 Norte 0 932.9 -- 66
2020-10-31 22:00:00 13.3 3 Norte 8 Norte 0 932.8 -- 61
2020-10-31 21:00:00 15.2 2 Norte 7 Norte 0 932.8 -- 51
2020-10-31 20:00:00 16.6 2 Norte 6 Norte 0 932.8 -- 44
2020-10-31 19:00:00 -- 3 Norte 5 Noroeste 0 932.7 -- --
2020-10-31 18:00:00 21.7 0 Calma 13 Noroeste 0 932.7 -- 32
2020-10-31 17:00:00 23.8 3 Noroeste 13 Noroeste 0 932.7 -- 29
2020-10-31 16:00:00 24.6 0 Calma 9 Sudoeste 0 932.7 -- 28
2020-10-31 15:00:00 24 4 Noroeste 11 Noroeste 0 932.7 -- 29
2020-10-31 14:00:00 23.2 2 Noroeste 8 Oeste 0 932.7 -- 32
2020-10-31 13:00:00 22.2 2 Oeste 8 Noroeste 0 932.7 -- 37
2020-10-31 12:00:00 19.8 3 Noroeste 8 Noroeste 0 932.7 -- 41
2020-10-31 11:00:00 17.7 0 Calma 4 Nordeste 0 932.7 -- 50
2020-10-31 10:00:00 13 0 Calma 3 Nordeste 0 932.9 -- 68
2020-10-31 09:00:00 8.8 0 Calma -- -- 0 932.9 -- 84
2020-10-31 08:00:00 7.1 0 Calma -- -- 0 933 -- 84
2020-10-31 07:00:00 7.4 0 Calma -- -- 0 932.9 -- 83
2020-10-31 06:00:00 7.5 0 Calma 3 Nordeste 0 932.9 -- 82
2020-10-31 05:00:00 7.9 0 Calma -- -- 0 933 -- 81
2020-10-31 04:00:00 -- 0 Calma 4 Nordeste 0 932.9 -- --
2020-10-31 03:00:00 -- 0 Calma 5 Nordeste 0 933 -- --
2020-10-31 02:00:00 -- 0 Calma 5 Nordeste 0 932.9 -- --
2020-10-31 01:00:00 -- 0 Calma 6 Nordeste 0 932.9 -- --
2020-10-31 00:00:00 -- 3 Nordeste 7 Nordeste 0 932.8 -- --
2020-10-30 23:00:00 -- 0 Calma 5 Nordeste 0 932.9 -- --
2020-10-30 22:00:00 13.6 2 Nordeste 6 Nordeste 0 932.9 -- 59
2020-10-30 21:00:00 14.2 0 Calma 6 Nordeste 0 932.8 -- 57
2020-10-30 20:00:00 15.8 2 Nordeste 6 Nordeste 0 932.7 -- 49
2020-10-30 19:00:00 17.8 0 Calma 4 Nordeste 0 932.8 -- 41
2020-10-30 18:00:00 20.7 3 Nordeste 8 Norte 0 932.7 -- 33
2020-10-30 17:00:00 22.9 2 Norte 10 Norte 0 932.7 -- 29
2020-10-30 16:00:00 23.2 4 Noroeste 11 Norte 0 932.7 -- 29
2020-10-30 15:00:00 23.5 2 Norte 9 Nordeste 0 932.7 -- 31
2020-10-30 14:00:00 23.3 3 Sudoeste 9 Sudoeste 0 932.7 -- 34
2020-10-30 13:00:00 21.6 2 Este 7 Este 0 932.6 -- 41
2020-10-30 12:00:00 19.3 2 Sudoeste 5 Sudoeste 0 932.6 -- 52
2020-10-30 11:00:00 -- 2 Noroeste 7 Noroeste 0 932.7 -- --
2020-10-30 10:00:00 -- 0 Calma 4 Nordeste 0 932.8 -- --
2020-10-30 09:00:00 -- 0 Calma 4 Nordeste 0 932.3 -- --
2020-10-30 08:00:00 6.8 0 Calma 6 Nordeste 0 933 -- 91
2020-10-30 07:00:00 6.8 3 Nordeste 7 Nordeste 0 933 -- 91
2020-10-30 06:00:00 -- 3 Nordeste 5 Nordeste 0 933 -- --
2020-10-30 05:00:00 -- 0 Calma 4 Nordeste 0 933 -- --
2020-10-30 04:00:00 -- 0 Calma 5 Nordeste 0 933 -- --
2020-10-30 03:00:00 6.9 3 Nordeste 5 Nordeste 0 932.9 -- 87
2020-10-30 02:00:00 8.4 0 Calma 0 Calma 0 932.9 -- 84
2020-10-30 01:00:00 8.4 0 Calma 3 Nordeste 0 932.9 -- 83
2020-10-30 00:00:00 9.4 0 Calma 7 Nordeste 0 932.9 -- 82